Terminal Aerodrome Forecast
Issued by NWS

Home | Current Version | Previous Version | Text Only | Print | Product List | Glossary On
Versions: 1 2 3 4 5 6 7 8 9 10 11 12
000
FTUS45 KGJT 270523 AAA
TAFDRO
TAF AMD
KDRO 270523Z 2705/2806 26005KT P6SM SCT250
     FM270700 29005KT P6SM FEW250
     FM271600 15005KT P6SM SKC
     FM271900 20010G20KT P6SM SKC
     FM280200 25007KT P6SM SKC=

USA.gov is the U.S. government's official web portal to all federal, state and local government web resources and services.